createdAt,value
2023-04-11T00:01:08.622Z,2.40
2023-04-11T00:03:41.687Z,2.17
2023-04-11T00:06:11.417Z,2.78
2023-04-11T00:08:39.864Z,2.88
2023-04-11T00:11:08.357Z,2.92
2023-04-11T00:13:37.770Z,2.65
2023-04-11T00:16:07.600Z,2.58
2023-04-11T00:18:37.736Z,2.97
2023-04-11T00:21:06.342Z,3.03
2023-04-11T00:23:36.078Z,3.35
2023-04-11T00:26:04.500Z,3.15
2023-04-11T00:28:32.486Z,2.72
2023-04-11T00:31:01.186Z,2.45
2023-04-11T00:33:29.438Z,2.08
2023-04-11T00:35:58.663Z,2.58
2023-04-11T00:38:27.077Z,2.20
2023-04-11T00:40:56.434Z,2.15
2023-04-11T00:43:26.732Z,1.67
2023-04-11T00:45:54.863Z,1.85
2023-04-11T00:48:28.199Z,1.77
2023-04-11T00:50:56.944Z,1.65
2023-04-11T00:53:25.922Z,1.35
2023-04-11T00:55:54.844Z,1.30
2023-04-11T00:58:24.085Z,1.30
2023-04-11T01:00:52.919Z,1.23
2023-04-11T01:03:26.868Z,1.40
2023-04-11T01:05:56.270Z,1.75
2023-04-11T01:08:28.413Z,1.50
2023-04-11T01:10:56.634Z,1.40
2023-04-11T01:13:27.087Z,1.17
2023-04-11T01:15:55.064Z,1.33
2023-04-11T01:18:25.684Z,1.02
2023-04-11T01:20:53.908Z,1.48
2023-04-11T01:23:25.576Z,1.17
2023-04-11T01:25:56.269Z,0.88
2023-04-11T01:28:24.297Z,0.80
2023-04-11T01:30:52.509Z,0.73
2023-04-11T01:33:21.515Z,0.60
2023-04-11T01:35:49.561Z,1.05
2023-04-11T01:38:17.690Z,1.10
2023-04-11T01:40:48.239Z,0.95
2023-04-11T01:43:17.388Z,0.80
2023-04-11T01:45:45.750Z,0.90
2023-04-11T01:48:17.044Z,0.80
2023-04-11T01:50:45.105Z,0.93
2023-04-11T01:53:13.291Z,0.85
2023-04-11T01:55:42.437Z,0.90
2023-04-11T01:58:12.862Z,0.88
2023-04-11T02:00:41.104Z,0.88
2023-04-11T02:03:09.459Z,0.73
2023-04-11T02:05:37.794Z,0.80
2023-04-11T02:08:05.925Z,0.95
2023-04-11T02:10:38.567Z,0.90
2023-04-11T02:13:08.827Z,1.05
2023-04-11T02:15:40.635Z,1.33
2023-04-11T02:18:09.322Z,0.82
2023-04-11T02:20:40.768Z,0.80
2023-04-11T02:23:08.737Z,1.33
2023-04-11T02:25:37.121Z,0.77
2023-04-11T02:28:07.405Z,1.05
2023-04-11T02:30:38.482Z,0.70
2023-04-11T02:33:06.667Z,1.00
2023-04-11T02:35:34.703Z,0.80
2023-04-11T02:38:04.442Z,1.13
2023-04-11T02:40:32.754Z,0.90
2023-04-11T02:43:02.357Z,1.35
2023-04-11T02:45:30.866Z,0.90
2023-04-11T02:48:00.301Z,0.98
2023-04-11T02:50:28.611Z,1.10
2023-04-11T02:52:56.945Z,0.90
2023-04-11T02:55:25.057Z,1.10
2023-04-11T02:57:53.750Z,1.20
2023-04-11T03:00:22.480Z,1.02
2023-04-11T03:02:50.600Z,1.00
2023-04-11T03:05:20.366Z,1.30
2023-04-11T03:07:48.839Z,0.82
2023-04-11T03:10:17.234Z,1.00
2023-04-11T03:12:45.671Z,1.08
2023-04-11T03:15:15.178Z,1.00
2023-04-11T03:17:43.321Z,0.88
2023-04-11T03:20:13.874Z,0.90
2023-04-11T03:22:43.456Z,0.90
2023-04-11T03:25:11.533Z,0.95
2023-04-11T03:27:39.451Z,1.10
2023-04-11T03:30:08.577Z,1.08
2023-04-11T03:32:36.942Z,0.60
2023-04-11T03:35:06.234Z,1.15
2023-04-11T03:37:34.738Z,0.95
2023-04-11T03:40:05.136Z,0.95
2023-04-11T03:42:33.662Z,1.23
2023-04-11T03:45:02.030Z,0.93
2023-04-11T03:47:29.990Z,1.20
2023-04-11T03:49:59.132Z,1.00
2023-04-11T03:52:29.546Z,1.55
2023-04-11T03:54:57.808Z,1.10
2023-04-11T03:57:28.138Z,0.98
2023-04-11T03:59:58.952Z,1.02
2023-04-11T04:02:27.538Z,1.00
2023-04-11T04:04:58.943Z,0.80
2023-04-11T04:07:27.469Z,1.10
2023-04-11T04:09:55.880Z,0.77
2023-04-11T04:12:24.299Z,1.30
2023-04-11T04:14:57.853Z,1.30
2023-04-11T04:17:25.854Z,0.70
2023-04-11T04:19:53.777Z,0.80
2023-04-11T04:22:22.390Z,0.88
2023-04-11T04:24:51.702Z,0.60
2023-04-11T04:27:19.906Z,0.80
2023-04-11T04:29:49.258Z,0.90
2023-04-11T04:34:55.061Z,0.63
2023-04-11T04:37:28.469Z,0.57
2023-04-11T04:39:58.191Z,0.98
2023-04-11T04:42:27.592Z,0.70
2023-04-11T04:44:56.867Z,0.60
2023-04-11T04:47:34.803Z,0.90
2023-04-11T04:50:03.036Z,0.85
2023-04-11T04:52:31.828Z,0.75
2023-04-11T04:55:00.058Z,0.57
2023-04-11T04:57:29.313Z,1.00
2023-04-11T04:59:58.298Z,7.97
2023-04-11T05:02:28.046Z,3.00
2023-04-11T05:04:56.262Z,3.08
2023-04-11T05:07:25.204Z,6.78
2023-04-11T05:09:53.372Z,2.75
2023-04-11T05:12:26.303Z,1.50
2023-04-11T05:14:56.739Z,1.38
2023-04-11T05:17:26.229Z,2.17
2023-04-11T05:19:55.766Z,1.33
2023-04-11T05:22:23.728Z,1.63
2023-04-11T05:24:52.202Z,1.42
2023-04-11T05:27:20.687Z,1.17
2023-04-11T05:29:48.903Z,1.20
2023-04-11T05:32:16.830Z,1.35
2023-04-11T05:34:58.963Z,1.15
2023-04-11T05:37:27.816Z,1.23
2023-04-11T05:39:58.886Z,1.20
2023-04-11T05:42:26.822Z,1.00
2023-04-11T05:44:54.750Z,1.60
2023-04-11T05:47:22.640Z,1.23
2023-04-11T05:49:50.747Z,1.60
2023-04-11T05:52:20.775Z,1.60
2023-04-11T05:54:49.036Z,1.83
2023-04-11T05:57:17.928Z,1.98
2023-04-11T05:59:49.768Z,1.92
2023-04-11T06:02:18.002Z,1.73
2023-04-11T06:04:46.102Z,1.73
2023-04-11T06:07:14.393Z,1.85
2023-04-11T06:09:44.512Z,1.67
2023-04-11T06:12:12.629Z,1.70
2023-04-11T06:14:40.970Z,1.50
2023-04-11T06:17:18.861Z,1.20
2023-04-11T06:19:47.559Z,2.30
2023-04-11T06:22:15.836Z,1.20
2023-04-11T06:24:54.957Z,2.05
2023-04-11T06:27:23.032Z,1.73
2023-04-11T06:29:51.009Z,1.83
2023-04-11T06:32:20.295Z,1.63
2023-04-11T06:34:50.292Z,1.65
2023-04-11T06:37:18.726Z,1.52
2023-04-11T06:39:48.620Z,1.60
2023-04-11T06:42:16.791Z,1.95
2023-04-11T06:44:45.784Z,1.20
2023-04-11T06:47:14.443Z,1.45
2023-04-11T06:49:42.618Z,1.80
2023-04-11T06:52:10.916Z,1.75
2023-04-11T06:54:39.307Z,1.48
2023-04-11T06:57:10.744Z,1.20
2023-04-11T06:59:38.728Z,1.63
2023-04-11T07:02:11.685Z,1.45
2023-04-11T07:04:39.779Z,2.15
2023-04-11T07:07:07.873Z,1.88
2023-04-11T07:09:36.639Z,1.13
2023-04-11T07:12:05.207Z,1.75
2023-04-11T07:14:34.577Z,1.40
2023-04-11T07:17:03.377Z,2.22
2023-04-11T07:19:35.456Z,1.52
2023-04-11T07:22:05.779Z,1.48
2023-04-11T07:24:33.788Z,2.33
2023-04-11T07:27:02.133Z,1.70
2023-04-11T07:29:30.862Z,2.42
2023-04-11T07:32:02.912Z,2.65
2023-04-11T07:34:31.169Z,1.83
2023-04-11T07:37:01.219Z,2.42
2023-04-11T07:39:31.807Z,2.10
2023-04-11T07:42:00.082Z,2.70
2023-04-11T07:44:28.721Z,2.42
2023-04-11T07:46:56.861Z,2.35
2023-04-11T07:49:28.543Z,2.42
2023-04-11T07:51:56.758Z,2.05
2023-04-11T07:54:25.396Z,1.50
2023-04-11T07:56:56.842Z,1.95
2023-04-11T07:59:24.964Z,1.88
2023-04-11T08:02:02.020Z,1.80
2023-04-11T08:04:34.621Z,1.52
2023-04-11T08:07:03.138Z,1.90
2023-04-11T08:09:31.721Z,1.63
2023-04-11T08:12:00.047Z,2.60
2023-04-11T08:14:29.488Z,0.90
2023-04-11T08:16:57.905Z,1.40
2023-04-11T08:19:26.293Z,1.40
2023-04-11T08:21:57.557Z,1.15
2023-04-11T08:24:30.993Z,1.25
2023-04-11T08:26:59.405Z,1.40
2023-04-11T08:29:27.950Z,1.10
2023-04-11T08:31:57.829Z,1.35
2023-04-11T08:34:25.834Z,1.50
2023-04-11T08:36:55.137Z,1.20
2023-04-11T08:39:23.704Z,1.08
2023-04-11T08:41:51.759Z,1.35
2023-04-11T08:44:22.437Z,1.30
2023-04-11T08:46:50.338Z,2.00
2023-04-11T08:49:18.559Z,1.17
2023-04-11T08:51:47.326Z,1.35
2023-04-11T08:54:17.300Z,1.20
2023-04-11T08:56:45.607Z,1.30
2023-04-11T08:59:16.135Z,1.25
2023-04-11T09:01:44.464Z,1.67
2023-04-11T09:04:17.688Z,1.20
2023-04-11T09:07:00.473Z,1.48
2023-04-11T09:09:32.969Z,1.20
2023-04-11T09:12:03.576Z,1.80
2023-04-11T09:14:33.450Z,1.40
2023-04-11T09:17:04.133Z,1.73
2023-04-11T09:19:35.572Z,2.22
2023-04-11T09:22:07.672Z,1.88
2023-04-11T09:24:38.365Z,1.60
2023-04-11T09:27:13.999Z,1.88
2023-04-11T09:29:45.346Z,1.88
2023-04-11T09:32:33.173Z,1.50
2023-04-11T09:35:13.479Z,1.75
2023-04-11T09:37:45.692Z,1.40
2023-04-11T09:40:16.909Z,1.33
2023-04-11T09:42:49.376Z,1.40
2023-04-11T09:45:19.634Z,1.00
2023-04-11T09:47:48.554Z,0.85
2023-04-11T09:50:19.655Z,1.10
2023-04-11T09:52:48.463Z,0.90
2023-04-11T09:55:21.694Z,1.27
2023-04-11T09:57:53.146Z,0.98
2023-04-11T10:00:24.304Z,1.40
2023-04-11T10:02:54.147Z,1.00
2023-04-11T10:05:27.790Z,1.02
2023-04-11T10:08:05.433Z,1.15
2023-04-11T10:10:37.078Z,1.38
2023-04-11T10:13:44.961Z,1.20
2023-04-11T10:16:18.356Z,1.02
2023-04-11T10:19:23.306Z,1.05
2023-04-11T10:21:53.527Z,1.00
2023-04-11T10:24:22.809Z,0.75
2023-04-11T10:26:53.872Z,1.52
2023-04-11T10:29:51.799Z,1.00
2023-04-11T10:32:26.539Z,0.50
2023-04-11T10:35:25.752Z,1.48
2023-04-11T10:37:53.992Z,1.10
2023-04-11T10:40:24.623Z,1.10
2023-04-11T10:42:55.404Z,0.90
2023-04-11T10:45:26.648Z,0.75
2023-04-11T10:48:07.922Z,0.73
2023-04-11T10:50:45.998Z,0.68
2023-04-11T10:53:37.211Z,0.75
2023-04-11T10:56:09.576Z,0.90
2023-04-11T10:58:41.660Z,0.68
2023-04-11T11:01:55.625Z,0.63
2023-04-11T11:04:32.294Z,1.35
2023-04-11T11:07:05.600Z,0.45
2023-04-11T11:09:34.693Z,0.60
2023-04-11T11:12:10.945Z,0.50
2023-04-11T11:14:44.184Z,0.60
2023-04-11T11:17:13.500Z,0.68
2023-04-11T11:19:49.413Z,0.60
2023-04-11T11:22:18.166Z,0.93
2023-04-11T11:24:47.680Z,0.80
2023-04-11T11:27:23.003Z,0.85
2023-04-11T11:29:53.597Z,0.90
2023-04-11T11:32:24.846Z,0.60
2023-04-11T11:34:57.957Z,5.22
2023-04-11T11:39:54.984Z,0.98
2023-04-11T11:42:23.383Z,0.60
2023-04-11T11:44:53.861Z,0.77
2023-04-11T11:47:22.797Z,0.95
2023-04-11T11:49:53.054Z,0.60
2023-04-11T11:52:34.380Z,0.60
2023-04-11T11:55:06.856Z,1.05
2023-04-11T11:57:36.937Z,0.73
2023-04-11T12:00:10.749Z,0.60
2023-04-11T12:02:43.073Z,0.68
2023-04-11T12:05:13.194Z,0.88
2023-04-11T12:07:42.318Z,0.68
2023-04-11T12:10:16.647Z,1.38
2023-04-11T12:12:53.594Z,0.80
2023-04-11T12:15:25.486Z,0.80
2023-04-11T12:17:55.779Z,1.08
2023-04-11T12:20:24.342Z,1.00
2023-04-11T12:22:54.646Z,0.90
2023-04-11T12:25:26.479Z,1.02
2023-04-11T12:27:55.164Z,0.85
2023-04-11T12:30:24.784Z,1.15
2023-04-11T12:32:52.912Z,0.60
2023-04-11T12:35:21.060Z,1.20
2023-04-11T12:37:49.493Z,1.13
2023-04-11T12:40:17.783Z,0.82
2023-04-11T12:42:56.174Z,1.15
2023-04-11T12:45:30.334Z,1.05
2023-04-11T12:47:58.274Z,0.88
2023-04-11T12:50:26.888Z,1.35
2023-04-11T12:52:57.206Z,1.33
2023-04-11T12:55:25.611Z,0.90
2023-04-11T12:57:53.883Z,1.00
2023-04-11T13:00:22.802Z,1.02
2023-04-11T13:02:55.906Z,0.82
2023-04-11T13:05:26.060Z,0.63
2023-04-11T13:07:54.106Z,0.50
2023-04-11T13:10:22.454Z,0.70
2023-04-11T13:12:53.243Z,0.73
2023-04-11T13:15:21.828Z,0.63
2023-04-11T13:17:53.572Z,1.00
2023-04-11T13:20:22.239Z,0.90
2023-04-11T13:22:50.526Z,0.90
2023-04-11T13:25:19.355Z,0.55
2023-04-11T13:27:47.734Z,0.82
2023-04-11T13:30:16.276Z,0.77
2023-04-11T13:32:44.461Z,0.60
2023-04-11T13:35:14.380Z,0.50
2023-04-11T13:37:42.461Z,0.60
2023-04-11T13:40:14.684Z,0.60
2023-04-11T13:42:46.077Z,0.70
2023-04-11T13:45:14.251Z,0.55
2023-04-11T13:47:42.417Z,1.38
2023-04-11T13:50:11.164Z,0.63
2023-04-11T13:52:43.167Z,0.70
2023-04-11T13:55:14.276Z,1.00
2023-04-11T13:57:43.240Z,1.92
2023-04-11T14:00:12.695Z,1.48
2023-04-11T14:02:40.990Z,1.25
2023-04-11T14:05:13.009Z,0.90
2023-04-11T14:07:44.655Z,0.80
2023-04-11T14:10:12.695Z,0.73
2023-04-11T14:12:40.907Z,0.70
2023-04-11T14:15:10.369Z,0.80
2023-04-11T14:17:38.319Z,0.90
2023-04-11T14:20:08.766Z,0.93
2023-04-11T14:22:38.206Z,0.70
2023-04-11T14:25:10.446Z,1.17
2023-04-11T14:27:38.527Z,0.93
2023-04-11T14:30:10.055Z,0.93
2023-04-11T14:32:38.612Z,0.80
2023-04-11T14:35:08.719Z,0.90
2023-04-11T14:37:37.848Z,1.13
2023-04-11T14:40:11.366Z,0.93
2023-04-11T14:42:41.757Z,0.98
2023-04-11T14:45:11.380Z,0.75
2023-04-11T14:47:40.340Z,1.00
2023-04-11T14:50:10.862Z,0.93
2023-04-11T14:52:39.433Z,0.90
2023-04-11T14:55:10.304Z,1.38
2023-04-11T14:57:46.529Z,0.85
2023-04-11T15:00:20.318Z,1.00
2023-04-11T15:02:49.520Z,0.80
2023-04-11T15:05:18.545Z,0.80
2023-04-11T15:07:48.217Z,1.00
2023-04-11T15:10:20.092Z,0.77
2023-04-11T15:12:48.110Z,1.00
2023-04-11T15:15:17.664Z,0.98
2023-04-11T15:17:48.745Z,0.90
2023-04-11T15:20:19.630Z,0.95
2023-04-11T15:22:49.399Z,2.22
2023-04-11T15:25:21.460Z,1.13
2023-04-11T15:27:52.120Z,0.90
2023-04-11T15:30:20.089Z,0.80
2023-04-11T15:32:48.084Z,0.75
2023-04-11T15:35:16.067Z,0.85
2023-04-11T15:37:44.349Z,1.83
2023-04-11T15:40:15.333Z,0.93
2023-04-11T15:42:45.339Z,0.90
2023-04-11T15:45:15.003Z,1.00
2023-04-11T15:47:45.617Z,1.23
2023-04-11T15:50:15.629Z,1.10
2023-04-11T15:52:43.784Z,0.88
2023-04-11T15:55:11.693Z,0.90
2023-04-11T15:57:41.707Z,0.90
2023-04-11T16:00:13.454Z,0.70
2023-04-11T16:02:46.714Z,0.90
2023-04-11T16:05:15.561Z,0.68
2023-04-11T16:07:43.775Z,0.90
2023-04-11T16:10:12.458Z,0.85
2023-04-11T16:12:40.827Z,0.73
2023-04-11T16:15:09.982Z,0.80
2023-04-11T16:17:39.474Z,0.90
2023-04-11T16:20:12.127Z,1.15
2023-04-11T16:22:40.481Z,1.08
2023-04-11T16:25:09.430Z,0.95
2023-04-11T16:27:37.465Z,1.27
2023-04-11T16:30:07.822Z,0.90
2023-04-11T16:32:36.445Z,0.80
2023-04-11T16:35:08.285Z,0.77
2023-04-11T16:37:36.542Z,1.00
2023-04-11T16:40:11.110Z,1.02
2023-04-11T16:42:40.096Z,0.85
2023-04-11T16:45:10.296Z,1.00
2023-04-11T16:47:38.531Z,1.08
2023-04-11T16:50:10.073Z,1.15
2023-04-11T16:52:38.336Z,1.13
2023-04-11T16:55:07.195Z,1.30
2023-04-11T16:57:43.449Z,1.30
2023-04-11T17:00:18.995Z,1.15
2023-04-11T17:02:47.537Z,1.25
2023-04-11T17:05:19.276Z,1.20
2023-04-11T17:07:48.061Z,1.33
2023-04-11T17:10:16.888Z,1.40
2023-04-11T17:12:45.276Z,0.80
2023-04-11T17:15:13.764Z,1.08
2023-04-11T17:17:46.569Z,1.17
2023-04-11T17:20:19.640Z,1.30
2023-04-11T17:22:49.873Z,1.10
2023-04-11T17:25:18.694Z,0.98
2023-04-11T17:27:47.180Z,0.80
2023-04-11T17:30:16.334Z,1.50
2023-04-11T17:32:45.727Z,1.70
2023-04-11T17:35:13.761Z,1.30
2023-04-11T17:37:44.533Z,1.10
2023-04-11T17:40:17.393Z,1.15
2023-04-11T17:42:45.974Z,1.15
2023-04-11T17:45:18.775Z,1.00
2023-04-11T17:47:47.980Z,1.30
2023-04-11T17:50:17.093Z,1.02
2023-04-11T17:52:52.087Z,1.52
2023-04-11T17:55:21.017Z,2.45
2023-04-11T17:57:50.436Z,1.38
2023-04-11T18:00:23.138Z,1.38
2023-04-11T18:02:52.944Z,1.50
2023-04-11T18:05:25.275Z,1.73
2023-04-11T18:07:56.398Z,1.30
2023-04-11T18:10:25.839Z,1.10
2023-04-11T18:12:55.366Z,1.45
2023-04-11T18:15:23.897Z,1.27
2023-04-11T18:17:53.186Z,1.45
2023-04-11T18:20:22.753Z,1.70
2023-04-11T18:22:56.180Z,1.65
2023-04-11T18:25:25.945Z,1.52
2023-04-11T18:27:55.017Z,1.88
2023-04-11T18:30:23.321Z,1.25
2023-04-11T18:32:53.849Z,1.88
2023-04-11T18:35:25.185Z,1.27
2023-04-11T18:37:54.032Z,1.25
2023-04-11T18:40:22.022Z,1.42
2023-04-11T18:42:52.989Z,1.20
2023-04-11T18:45:24.778Z,1.70
2023-04-11T18:47:56.207Z,1.52
2023-04-11T18:50:24.634Z,1.70
2023-04-11T18:52:56.160Z,1.25
2023-04-11T18:55:26.736Z,1.38
2023-04-11T18:57:59.306Z,1.38
2023-04-11T19:00:30.350Z,1.17
2023-04-11T19:02:58.992Z,1.20
2023-04-11T19:05:28.187Z,1.60
2023-04-11T19:07:56.924Z,1.10
2023-04-11T19:10:25.655Z,1.85
2023-04-11T19:12:55.303Z,1.85
2023-04-11T19:15:23.876Z,1.67
2023-04-11T19:17:53.326Z,2.03
2023-04-11T19:20:22.704Z,1.52
2023-04-11T19:22:52.540Z,1.58
2023-04-11T19:25:21.208Z,1.50
2023-04-11T19:27:50.195Z,1.33
2023-04-11T19:30:19.839Z,1.13
2023-04-11T19:32:48.604Z,1.10
2023-04-11T19:35:16.660Z,1.33
2023-04-11T19:37:45.542Z,1.02
2023-04-11T19:40:14.573Z,1.60
2023-04-11T19:42:43.154Z,1.08
2023-04-11T19:45:12.466Z,1.83
2023-04-11T19:47:44.613Z,1.48
2023-04-11T19:50:14.095Z,1.20
2023-04-11T19:52:44.008Z,1.00
2023-04-11T19:55:12.912Z,1.15
2023-04-11T19:57:43.519Z,1.10
2023-04-11T20:00:17.488Z,1.60
2023-04-11T20:02:49.111Z,1.60
2023-04-11T20:05:19.192Z,1.73
2023-04-11T20:07:48.236Z,1.75
2023-04-11T20:10:17.758Z,2.10
2023-04-11T20:12:46.129Z,2.28
2023-04-11T20:15:16.053Z,2.40
2023-04-11T20:17:46.092Z,3.33
2023-04-11T20:20:19.795Z,7.60
2023-04-11T20:22:48.110Z,9.00
2023-04-11T20:25:16.265Z,9.07
2023-04-11T20:27:45.860Z,9.60
2023-04-11T20:30:17.460Z,8.00
2023-04-11T20:32:46.275Z,7.43
2023-04-11T20:35:15.794Z,4.55
2023-04-11T20:37:45.309Z,3.45
2023-04-11T20:40:15.665Z,2.67
2023-04-11T20:42:45.801Z,2.75
2023-04-11T20:45:20.478Z,2.40
2023-04-11T20:47:50.167Z,2.10
2023-04-11T20:50:23.504Z,2.30
2023-04-11T20:55:22.155Z,2.28
2023-04-11T20:57:52.436Z,2.10
2023-04-11T21:00:21.544Z,2.15
2023-04-11T21:02:51.665Z,2.17
2023-04-11T21:05:22.555Z,1.98
2023-04-11T21:07:54.322Z,2.05
2023-04-11T21:10:22.854Z,2.47
2023-04-11T21:12:54.117Z,3.00
2023-04-11T21:15:23.155Z,2.88
2023-04-11T21:17:52.409Z,3.30
2023-04-11T21:20:22.514Z,3.38
2023-04-11T21:22:54.438Z,3.40
2023-04-11T21:25:25.640Z,2.88
2023-04-11T21:27:54.588Z,2.70
2023-04-11T21:30:24.120Z,3.30
2023-04-11T21:32:52.218Z,2.90
2023-04-11T21:35:21.874Z,2.60
2023-04-11T21:37:53.094Z,3.22
2023-04-11T21:40:23.046Z,3.55
2023-04-11T21:42:51.078Z,4.03
2023-04-11T21:45:19.203Z,4.78
2023-04-11T21:47:48.743Z,3.20
2023-04-11T21:50:18.094Z,2.65
2023-04-11T21:52:47.746Z,2.72
2023-04-11T21:55:16.637Z,2.65
2023-04-11T21:57:48.237Z,2.60
2023-04-11T22:00:17.587Z,2.70
2023-04-11T22:02:45.984Z,2.05
2023-04-11T22:05:17.416Z,2.33
2023-04-11T22:07:47.825Z,2.80
2023-04-11T22:10:22.040Z,2.55
2023-04-11T22:12:50.350Z,2.50
2023-04-11T22:15:21.528Z,2.60
2023-04-11T22:17:56.266Z,2.28
2023-04-11T22:20:25.863Z,2.58
2023-04-11T22:22:56.849Z,2.80
2023-04-11T22:25:25.373Z,2.35
2023-04-11T22:27:54.725Z,2.10
2023-04-11T22:30:24.687Z,1.95
2023-04-11T22:32:55.557Z,2.53
2023-04-11T22:35:26.078Z,2.00
2023-04-11T22:37:57.250Z,2.28
2023-04-11T22:40:25.866Z,2.08
2023-04-11T22:42:55.084Z,2.03
2023-04-11T22:45:25.954Z,2.35
2023-04-11T22:47:55.620Z,2.33
2023-04-11T22:50:26.356Z,2.53
2023-04-11T22:52:55.946Z,2.50
2023-04-11T22:55:24.748Z,3.10
2023-04-11T22:57:53.583Z,3.00
2023-04-11T23:00:26.368Z,2.20
2023-04-11T23:02:54.526Z,2.72
2023-04-11T23:05:23.121Z,2.83
2023-04-11T23:07:51.827Z,2.85
2023-04-11T23:10:26.345Z,2.50
2023-04-11T23:12:54.565Z,2.88
2023-04-11T23:15:22.782Z,2.67
2023-04-11T23:17:53.573Z,2.50
2023-04-11T23:20:22.194Z,2.05
2023-04-11T23:22:51.581Z,2.50
2023-04-11T23:25:21.007Z,1.90
2023-04-11T23:27:49.224Z,2.00
2023-04-11T23:30:17.901Z,2.33
2023-04-11T23:32:46.154Z,2.40
2023-04-11T23:35:17.334Z,1.90
2023-04-11T23:37:48.178Z,2.13
2023-04-11T23:40:17.015Z,2.45
2023-04-11T23:42:47.560Z,2.60
2023-04-11T23:45:20.423Z,3.83
2023-04-11T23:47:48.322Z,5.15
2023-04-11T23:50:17.903Z,3.83
2023-04-11T23:52:46.669Z,2.42
2023-04-11T23:55:15.630Z,2.58
2023-04-11T23:57:46.359Z,2.10
